sensor_id;sensor_type;location;lat;lon;timestamp;temperature;humidity
66019;HTU21D;52787;51.084;5.816;2024-02-21T00:00:56;10.80;78.04
66019;HTU21D;52787;51.084;5.816;2024-02-21T00:03:22;10.81;78.11
66019;HTU21D;52787;51.084;5.816;2024-02-21T00:05:48;10.82;78.08
66019;HTU21D;52787;51.084;5.816;2024-02-21T00:08:14;10.80;78.12
66019;HTU21D;52787;51.084;5.816;2024-02-21T00:10:40;10.82;78.12
66019;HTU21D;52787;51.084;5.816;2024-02-21T00:13:05;10.79;78.15
66019;HTU21D;52787;51.084;5.816;2024-02-21T00:15:31;10.80;78.39
66019;HTU21D;52787;51.084;5.816;2024-02-21T00:17:57;10.83;78.48
66019;HTU21D;52787;51.084;5.816;2024-02-21T00:20:23;10.83;78.47
66019;HTU21D;52787;51.084;5.816;2024-02-21T00:22:51;10.86;78.27
66019;HTU21D;52787;51.084;5.816;2024-02-21T00:25:16;10.84;78.24
66019;HTU21D;52787;51.084;5.816;2024-02-21T00:27:42;10.81;78.30
66019;HTU21D;52787;51.084;5.816;2024-02-21T00:30:09;10.81;78.35
66019;HTU21D;52787;51.084;5.816;2024-02-21T00:32:35;10.80;78.20
66019;HTU21D;52787;51.084;5.816;2024-02-21T00:35:01;10.79;78.27
66019;HTU21D;52787;51.084;5.816;2024-02-21T00:37:27;10.82;78.12
66019;HTU21D;52787;51.084;5.816;2024-02-21T00:39:56;10.82;78.08
66019;HTU21D;52787;51.084;5.816;2024-02-21T00:42:21;10.81;78.22
66019;HTU21D;52787;51.084;5.816;2024-02-21T00:44:47;10.82;78.18
66019;HTU21D;52787;51.084;5.816;2024-02-21T00:47:13;10.81;78.11
66019;HTU21D;52787;51.084;5.816;2024-02-21T00:49:39;10.81;78.11
66019;HTU21D;52787;51.084;5.816;2024-02-21T00:52:04;10.81;78.24
66019;HTU21D;52787;51.084;5.816;2024-02-21T00:54:30;10.82;78.37
66019;HTU21D;52787;51.084;5.816;2024-02-21T00:56:56;10.82;78.41
66019;HTU21D;52787;51.084;5.816;2024-02-21T00:59:22;10.84;78.36
66019;HTU21D;52787;51.084;5.816;2024-02-21T01:01:47;10.84;78.18
66019;HTU21D;52787;51.084;5.816;2024-02-21T01:04:13;10.85;78.27
66019;HTU21D;52787;51.084;5.816;2024-02-21T01:06:39;10.83;78.41
66019;HTU21D;52787;51.084;5.816;2024-02-21T01:09:08;10.85;78.38
66019;HTU21D;52787;51.084;5.816;2024-02-21T01:11:34;10.89;78.28
66019;HTU21D;52787;51.084;5.816;2024-02-21T01:14:00;10.92;77.98
66019;HTU21D;52787;51.084;5.816;2024-02-21T01:16:26;10.93;78.14
66019;HTU21D;52787;51.084;5.816;2024-02-21T01:18:52;10.97;78.12
66019;HTU21D;52787;51.084;5.816;2024-02-21T01:21:17;10.97;78.08
66019;HTU21D;52787;51.084;5.816;2024-02-21T01:23:43;10.98;77.96
66019;HTU21D;52787;51.084;5.816;2024-02-21T01:26:09;10.99;77.89
66019;HTU21D;52787;51.084;5.816;2024-02-21T01:28:38;10.96;77.94
66019;HTU21D;52787;51.084;5.816;2024-02-21T01:31:04;10.97;77.88
66019;HTU21D;52787;51.084;5.816;2024-02-21T01:33:30;10.96;77.72
66019;HTU21D;52787;51.084;5.816;2024-02-21T01:36:01;10.96;77.79
66019;HTU21D;52787;51.084;5.816;2024-02-21T01:38:28;10.96;77.84
66019;HTU21D;52787;51.084;5.816;2024-02-21T01:40:54;10.97;77.83
66019;HTU21D;52787;51.084;5.816;2024-02-21T01:43:21;10.93;77.64
66019;HTU21D;52787;51.084;5.816;2024-02-21T01:45:49;10.88;77.78
66019;HTU21D;52787;51.084;5.816;2024-02-21T01:48:17;10.86;77.94
66019;HTU21D;52787;51.084;5.816;2024-02-21T01:50:47;10.86;78.11
66019;HTU21D;52787;51.084;5.816;2024-02-21T01:53:29;10.88;78.13
66019;HTU21D;52787;51.084;5.816;2024-02-21T01:55:56;10.87;77.84
66019;HTU21D;52787;51.084;5.816;2024-02-21T01:58:23;10.88;77.77
66019;HTU21D;52787;51.084;5.816;2024-02-21T02:00:50;10.86;77.66
66019;HTU21D;52787;51.084;5.816;2024-02-21T02:03:17;10.85;77.76
66019;HTU21D;52787;51.084;5.816;2024-02-21T02:05:50;10.85;77.91
66019;HTU21D;52787;51.084;5.816;2024-02-21T02:08:17;10.86;77.95
66019;HTU21D;52787;51.084;5.816;2024-02-21T02:10:45;10.86;78.03
66019;HTU21D;52787;51.084;5.816;2024-02-21T02:13:14;10.88;78.06
66019;HTU21D;52787;51.084;5.816;2024-02-21T02:15:49;10.88;78.08
66019;HTU21D;52787;51.084;5.816;2024-02-21T02:18:17;10.87;78.09
66019;HTU21D;52787;51.084;5.816;2024-02-21T02:20:45;10.88;78.05
66019;HTU21D;52787;51.084;5.816;2024-02-21T02:23:27;10.85;78.12
66019;HTU21D;52787;51.084;5.816;2024-02-21T02:25:53;10.86;78.12
66019;HTU21D;52787;51.084;5.816;2024-02-21T02:28:20;10.85;78.07
66019;HTU21D;52787;51.084;5.816;2024-02-21T02:30:46;10.85;77.94
66019;HTU21D;52787;51.084;5.816;2024-02-21T02:33:12;10.81;77.82
66019;HTU21D;52787;51.084;5.816;2024-02-21T02:35:39;10.82;77.92
66019;HTU21D;52787;51.084;5.816;2024-02-21T02:38:05;10.85;77.88
66019;HTU21D;52787;51.084;5.816;2024-02-21T02:40:34;10.84;77.82
66019;HTU21D;52787;51.084;5.816;2024-02-21T02:43:01;10.88;77.63
66019;HTU21D;52787;51.084;5.816;2024-02-21T02:45:27;10.85;77.47
66019;HTU21D;52787;51.084;5.816;2024-02-21T02:47:53;10.83;77.53
66019;HTU21D;52787;51.084;5.816;2024-02-21T02:50:20;10.82;77.56
66019;HTU21D;52787;51.084;5.816;2024-02-21T02:52:46;10.78;77.67
66019;HTU21D;52787;51.084;5.816;2024-02-21T02:55:12;10.78;77.40
66019;HTU21D;52787;51.084;5.816;2024-02-21T02:57:38;10.78;77.49
66019;HTU21D;52787;51.084;5.816;2024-02-21T03:00:05;10.78;77.50
66019;HTU21D;52787;51.084;5.816;2024-02-21T03:02:32;10.75;77.50
66019;HTU21D;52787;51.084;5.816;2024-02-21T03:04:58;10.75;77.54
66019;HTU21D;52787;51.084;5.816;2024-02-21T03:07:25;10.78;77.69
66019;HTU21D;52787;51.084;5.816;2024-02-21T03:09:51;10.78;77.61
66019;HTU21D;52787;51.084;5.816;2024-02-21T03:12:18;10.78;77.73
66019;HTU21D;52787;51.084;5.816;2024-02-21T03:14:53;10.78;77.57
66019;HTU21D;52787;51.084;5.816;2024-02-21T03:17:19;10.74;77.47
66019;HTU21D;52787;51.084;5.816;2024-02-21T03:19:44;10.73;77.71
66019;HTU21D;52787;51.084;5.816;2024-02-21T03:22:10;10.73;77.50
66019;HTU21D;52787;51.084;5.816;2024-02-21T03:24:36;10.72;77.67
66019;HTU21D;52787;51.084;5.816;2024-02-21T03:27:02;10.74;77.69
66019;HTU21D;52787;51.084;5.816;2024-02-21T03:29:27;10.72;77.80
66019;HTU21D;52787;51.084;5.816;2024-02-21T03:31:53;10.74;77.67
66019;HTU21D;52787;51.084;5.816;2024-02-21T03:34:20;10.73;77.73
66019;HTU21D;52787;51.084;5.816;2024-02-21T03:36:46;10.73;77.60
66019;HTU21D;52787;51.084;5.816;2024-02-21T03:39:12;10.73;77.40
66019;HTU21D;52787;51.084;5.816;2024-02-21T03:41:37;10.70;77.21
66019;HTU21D;52787;51.084;5.816;2024-02-21T03:44:03;10.69;77.20
66019;HTU21D;52787;51.084;5.816;2024-02-21T03:46:30;10.66;77.24
66019;HTU21D;52787;51.084;5.816;2024-02-21T03:48:57;10.66;77.19
66019;HTU21D;52787;51.084;5.816;2024-02-21T03:51:23;10.67;77.03
66019;HTU21D;52787;51.084;5.816;2024-02-21T03:53:49;10.67;77.02
66019;HTU21D;52787;51.084;5.816;2024-02-21T03:56:15;10.66;77.02
66019;HTU21D;52787;51.084;5.816;2024-02-21T03:58:40;10.64;77.08
66019;HTU21D;52787;51.084;5.816;2024-02-21T04:01:06;10.65;77.05
66019;HTU21D;52787;51.084;5.816;2024-02-21T04:03:32;10.67;77.03
66019;HTU21D;52787;51.084;5.816;2024-02-21T04:05:57;10.68;77.11
66019;HTU21D;52787;51.084;5.816;2024-02-21T04:08:23;10.67;77.32
66019;HTU21D;52787;51.084;5.816;2024-02-21T04:10:49;10.69;77.24
66019;HTU21D;52787;51.084;5.816;2024-02-21T04:13:15;10.69;77.10
66019;HTU21D;52787;51.084;5.816;2024-02-21T04:15:41;10.66;77.14
66019;HTU21D;52787;51.084;5.816;2024-02-21T04:18:07;10.63;77.14
66019;HTU21D;52787;51.084;5.816;2024-02-21T04:20:34;10.58;77.40
66019;HTU21D;52787;51.084;5.816;2024-02-21T04:23:00;10.57;77.48
66019;HTU21D;52787;51.084;5.816;2024-02-21T04:25:26;10.54;77.44
66019;HTU21D;52787;51.084;5.816;2024-02-21T04:27:52;10.48;77.70
66019;HTU21D;52787;51.084;5.816;2024-02-21T04:30:18;10.45;78.01
66019;HTU21D;52787;51.084;5.816;2024-02-21T04:32:44;10.43;77.98
66019;HTU21D;52787;51.084;5.816;2024-02-21T04:35:10;10.43;78.09
66019;HTU21D;52787;51.084;5.816;2024-02-21T04:37:36;10.45;77.95
66019;HTU21D;52787;51.084;5.816;2024-02-21T04:40:01;10.46;77.92
66019;HTU21D;52787;51.084;5.816;2024-02-21T04:42:27;10.48;77.73
66019;HTU21D;52787;51.084;5.816;2024-02-21T04:44:53;10.45;77.64
66019;HTU21D;52787;51.084;5.816;2024-02-21T04:47:19;10.41;77.59
66019;HTU21D;52787;51.084;5.816;2024-02-21T04:49:49;10.37;77.79
66019;HTU21D;52787;51.084;5.816;2024-02-21T04:52:14;10.35;77.99
66019;HTU21D;52787;51.084;5.816;2024-02-21T04:54:40;10.34;77.98
66019;HTU21D;52787;51.084;5.816;2024-02-21T04:57:06;10.31;78.05
66019;HTU21D;52787;51.084;5.816;2024-02-21T04:59:32;10.31;78.14
66019;HTU21D;52787;51.084;5.816;2024-02-21T05:01:57;10.33;78.15
66019;HTU21D;52787;51.084;5.816;2024-02-21T05:04:24;10.33;78.08
66019;HTU21D;52787;51.084;5.816;2024-02-21T05:06:50;10.31;78.19
66019;HTU21D;52787;51.084;5.816;2024-02-21T05:09:16;10.35;78.22
66019;HTU21D;52787;51.084;5.816;2024-02-21T05:11:41;10.31;78.18
66019;HTU21D;52787;51.084;5.816;2024-02-21T05:14:07;10.31;78.28
66019;HTU21D;52787;51.084;5.816;2024-02-21T05:16:33;10.36;78.24
66019;HTU21D;52787;51.084;5.816;2024-02-21T05:18:58;10.36;78.11
66019;HTU21D;52787;51.084;5.816;2024-02-21T05:21:25;10.35;78.15
66019;HTU21D;52787;51.084;5.816;2024-02-21T05:23:51;10.36;78.10
66019;HTU21D;52787;51.084;5.816;2024-02-21T05:26:21;10.37;78.19
66019;HTU21D;52787;51.084;5.816;2024-02-21T05:28:48;10.36;78.08
66019;HTU21D;52787;51.084;5.816;2024-02-21T05:31:15;10.34;78.14
66019;HTU21D;52787;51.084;5.816;2024-02-21T05:33:43;10.34;78.18
66019;HTU21D;52787;51.084;5.816;2024-02-21T05:36:09;10.38;78.22
66019;HTU21D;52787;51.084;5.816;2024-02-21T05:38:35;10.41;77.98
66019;HTU21D;52787;51.084;5.816;2024-02-21T05:41:02;10.42;77.99
66019;HTU21D;52787;51.084;5.816;2024-02-21T05:43:28;10.41;77.91
66019;HTU21D;52787;51.084;5.816;2024-02-21T05:45:54;10.43;77.79
66019;HTU21D;52787;51.084;5.816;2024-02-21T05:48:21;10.44;77.85
66019;HTU21D;52787;51.084;5.816;2024-02-21T05:50:47;10.48;77.79
66019;HTU21D;52787;51.084;5.816;2024-02-21T05:53:13;10.51;77.57
66019;HTU21D;52787;51.084;5.816;2024-02-21T05:55:39;10.51;77.44
66019;HTU21D;52787;51.084;5.816;2024-02-21T05:58:05;10.54;77.29
66019;HTU21D;52787;51.084;5.816;2024-02-21T06:00:32;10.54;77.13
66019;HTU21D;52787;51.084;5.816;2024-02-21T06:02:58;10.54;77.16
66019;HTU21D;52787;51.084;5.816;2024-02-21T06:05:24;10.53;77.00
66019;HTU21D;52787;51.084;5.816;2024-02-21T06:07:50;10.51;76.86
66019;HTU21D;52787;51.084;5.816;2024-02-21T06:10:16;10.48;76.90
66019;HTU21D;52787;51.084;5.816;2024-02-21T06:12:42;10.46;77.09
66019;HTU21D;52787;51.084;5.816;2024-02-21T06:15:08;10.45;77.18
66019;HTU21D;52787;51.084;5.816;2024-02-21T06:17:34;10.44;77.11
66019;HTU21D;52787;51.084;5.816;2024-02-21T06:20:00;10.42;77.12
66019;HTU21D;52787;51.084;5.816;2024-02-21T06:22:26;10.42;77.21
66019;HTU21D;52787;51.084;5.816;2024-02-21T06:24:52;10.42;77.25
66019;HTU21D;52787;51.084;5.816;2024-02-21T06:27:19;10.43;77.21
66019;HTU21D;52787;51.084;5.816;2024-02-21T06:29:45;10.43;77.33
66019;HTU21D;52787;51.084;5.816;2024-02-21T06:32:11;10.43;77.31
66019;HTU21D;52787;51.084;5.816;2024-02-21T06:34:37;10.42;77.49
66019;HTU21D;52787;51.084;5.816;2024-02-21T06:37:02;10.38;77.72
66019;HTU21D;52787;51.084;5.816;2024-02-21T06:39:29;10.38;77.79
66019;HTU21D;52787;51.084;5.816;2024-02-21T06:41:55;10.37;77.88
66019;HTU21D;52787;51.084;5.816;2024-02-21T06:44:21;10.36;77.90
66019;HTU21D;52787;51.084;5.816;2024-02-21T06:46:47;10.31;78.01
66019;HTU21D;52787;51.084;5.816;2024-02-21T06:49:13;10.27;78.24
66019;HTU21D;52787;51.084;5.816;2024-02-21T06:51:42;10.24;78.47
66019;HTU21D;52787;51.084;5.816;2024-02-21T06:54:08;10.20;78.74
66019;HTU21D;52787;51.084;5.816;2024-02-21T06:56:39;10.22;78.81
66019;HTU21D;52787;51.084;5.816;2024-02-21T06:59:05;10.21;78.74
66019;HTU21D;52787;51.084;5.816;2024-02-21T07:01:31;10.21;78.77
66019;HTU21D;52787;51.084;5.816;2024-02-21T07:03:57;10.26;78.67
66019;HTU21D;52787;51.084;5.816;2024-02-21T07:06:23;10.27;78.53
66019;HTU21D;52787;51.084;5.816;2024-02-21T07:08:49;10.23;78.25
66019;HTU21D;52787;51.084;5.816;2024-02-21T07:11:15;10.21;78.35
66019;HTU21D;52787;51.084;5.816;2024-02-21T07:13:41;10.19;78.64
66019;HTU21D;52787;51.084;5.816;2024-02-21T07:16:07;10.18;78.56
66019;HTU21D;52787;51.084;5.816;2024-02-21T07:18:33;10.18;78.62
66019;HTU21D;52787;51.084;5.816;2024-02-21T07:20:59;10.14;79.05
66019;HTU21D;52787;51.084;5.816;2024-02-21T07:23:25;10.14;79.10
66019;HTU21D;52787;51.084;5.816;2024-02-21T07:25:51;10.11;79.24
66019;HTU21D;52787;51.084;5.816;2024-02-21T07:28:17;10.11;79.28
66019;HTU21D;52787;51.084;5.816;2024-02-21T07:30:43;10.11;79.33
66019;HTU21D;52787;51.084;5.816;2024-02-21T07:33:09;10.13;79.44
66019;HTU21D;52787;51.084;5.816;2024-02-21T07:35:35;10.14;79.38
66019;HTU21D;52787;51.084;5.816;2024-02-21T07:38:06;10.16;79.46
66019;HTU21D;52787;51.084;5.816;2024-02-21T07:40:32;10.13;79.54
66019;HTU21D;52787;51.084;5.816;2024-02-21T07:42:58;10.10;79.86
66019;HTU21D;52787;51.084;5.816;2024-02-21T07:45:24;10.13;79.88
66019;HTU21D;52787;51.084;5.816;2024-02-21T07:47:50;10.14;79.54
66019;HTU21D;52787;51.084;5.816;2024-02-21T07:50:16;10.13;79.48
66019;HTU21D;52787;51.084;5.816;2024-02-21T07:52:42;10.11;79.29
66019;HTU21D;52787;51.084;5.816;2024-02-21T07:55:08;10.09;79.40
66019;HTU21D;52787;51.084;5.816;2024-02-21T07:57:36;10.09;79.49
66019;HTU21D;52787;51.084;5.816;2024-02-21T08:00:02;10.12;79.45
66019;HTU21D;52787;51.084;5.816;2024-02-21T08:02:30;10.15;79.45
66019;HTU21D;52787;51.084;5.816;2024-02-21T08:04:55;10.19;79.17
66019;HTU21D;52787;51.084;5.816;2024-02-21T08:07:21;10.22;78.72
66019;HTU21D;52787;51.084;5.816;2024-02-21T08:09:47;10.22;78.72
66019;HTU21D;52787;51.084;5.816;2024-02-21T08:12:13;10.23;78.89
66019;HTU21D;52787;51.084;5.816;2024-02-21T08:14:38;10.29;78.69
66019;HTU21D;52787;51.084;5.816;2024-02-21T08:17:04;10.26;78.39
66019;HTU21D;52787;51.084;5.816;2024-02-21T08:19:30;10.23;78.60
66019;HTU21D;52787;51.084;5.816;2024-02-21T08:21:56;10.27;78.56
66019;HTU21D;52787;51.084;5.816;2024-02-21T08:24:22;10.30;78.47
66019;HTU21D;52787;51.084;5.816;2024-02-21T08:26:48;10.36;78.35
66019;HTU21D;52787;51.084;5.816;2024-02-21T08:29:14;10.39;78.11
66019;HTU21D;52787;51.084;5.816;2024-02-21T08:31:40;10.40;77.79
66019;HTU21D;52787;51.084;5.816;2024-02-21T08:34:06;10.42;77.69
66019;HTU21D;52787;51.084;5.816;2024-02-21T08:36:35;10.48;77.50
66019;HTU21D;52787;51.084;5.816;2024-02-21T08:39:02;10.46;77.43
66019;HTU21D;52787;51.084;5.816;2024-02-21T08:41:31;10.46;76.99
66019;HTU21D;52787;51.084;5.816;2024-02-21T08:43:57;10.44;77.02
66019;HTU21D;52787;51.084;5.816;2024-02-21T08:46:23;10.43;76.97
66019;HTU21D;52787;51.084;5.816;2024-02-21T08:48:50;10.45;76.60
66019;HTU21D;52787;51.084;5.816;2024-02-21T08:51:19;10.48;76.24
66019;HTU21D;52787;51.084;5.816;2024-02-21T08:53:46;10.52;76.16
66019;HTU21D;52787;51.084;5.816;2024-02-21T08:56:13;10.54;75.54
66019;HTU21D;52787;51.084;5.816;2024-02-21T08:58:40;10.54;75.08
66019;HTU21D;52787;51.084;5.816;2024-02-21T09:01:06;10.57;75.01
66019;HTU21D;52787;51.084;5.816;2024-02-21T09:03:39;10.64;74.67
66019;HTU21D;52787;51.084;5.816;2024-02-21T09:06:06;10.70;74.41
66019;HTU21D;52787;51.084;5.816;2024-02-21T09:08:33;10.75;74.43
66019;HTU21D;52787;51.084;5.816;2024-02-21T09:11:02;10.82;73.97
66019;HTU21D;52787;51.084;5.816;2024-02-21T09:13:28;10.85;73.73
66019;HTU21D;52787;51.084;5.816;2024-02-21T09:15:55;10.89;73.28
66019;HTU21D;52787;51.084;5.816;2024-02-21T09:18:21;10.93;73.03
66019;HTU21D;52787;51.084;5.816;2024-02-21T09:20:47;10.96;73.06
66019;HTU21D;52787;51.084;5.816;2024-02-21T09:23:13;11.02;72.98
66019;HTU21D;52787;51.084;5.816;2024-02-21T09:25:39;11.05;72.93
66019;HTU21D;52787;51.084;5.816;2024-02-21T09:28:05;11.09;72.45
66019;HTU21D;52787;51.084;5.816;2024-02-21T09:30:34;11.13;72.30
66019;HTU21D;52787;51.084;5.816;2024-02-21T09:33:00;11.13;72.24
66019;HTU21D;52787;51.084;5.816;2024-02-21T09:35:28;11.15;72.03
66019;HTU21D;52787;51.084;5.816;2024-02-21T09:37:54;11.14;71.85
66019;HTU21D;52787;51.084;5.816;2024-02-21T09:40:20;11.15;71.67
66019;HTU21D;52787;51.084;5.816;2024-02-21T09:42:48;11.16;71.69
66019;HTU21D;52787;51.084;5.816;2024-02-21T09:45:20;11.19;71.67
66019;HTU21D;52787;51.084;5.816;2024-02-21T09:51:01;11.39;71.31
66019;HTU21D;52787;51.084;5.816;2024-02-21T09:53:30;11.41;70.96
66019;HTU21D;52787;51.084;5.816;2024-02-21T09:55:59;11.41;70.85
66019;HTU21D;52787;51.084;5.816;2024-02-21T09:58:26;11.41;70.52
66019;HTU21D;52787;51.084;5.816;2024-02-21T10:00:53;11.43;70.52
66019;HTU21D;52787;51.084;5.816;2024-02-21T10:03:19;11.42;70.17
66019;HTU21D;52787;51.084;5.816;2024-02-21T10:05:48;11.38;70.58
66019;HTU21D;52787;51.084;5.816;2024-02-21T10:08:18;11.44;70.75
66019;HTU21D;52787;51.084;5.816;2024-02-21T10:10:45;11.51;70.62
66019;HTU21D;52787;51.084;5.816;2024-02-21T10:13:26;11.61;70.32
66019;HTU21D;52787;51.084;5.816;2024-02-21T10:16:08;11.70;69.71
66019;HTU21D;52787;51.084;5.816;2024-02-21T10:18:34;11.74;69.74
66019;HTU21D;52787;51.084;5.816;2024-02-21T10:21:05;11.73;69.39
66019;HTU21D;52787;51.084;5.816;2024-02-21T10:23:46;11.73;69.47
66019;HTU21D;52787;51.084;5.816;2024-02-21T10:26:14;11.74;69.80
66019;HTU21D;52787;51.084;5.816;2024-02-21T10:28:41;11.78;69.37
66019;HTU21D;52787;51.084;5.816;2024-02-21T10:31:11;11.79;69.16
66019;HTU21D;52787;51.084;5.816;2024-02-21T10:33:57;11.87;69.39
66019;HTU21D;52787;51.084;5.816;2024-02-21T10:36:24;11.90;69.14
66019;HTU21D;52787;51.084;5.816;2024-02-21T10:38:51;11.97;69.13
66019;HTU21D;52787;51.084;5.816;2024-02-21T10:41:20;12.03;68.93
66019;HTU21D;52787;51.084;5.816;2024-02-21T10:43:54;12.10;69.30
66019;HTU21D;52787;51.084;5.816;2024-02-21T10:46:22;12.18;68.65
66019;HTU21D;52787;51.084;5.816;2024-02-21T10:49:07;12.22;68.81
66019;HTU21D;52787;51.084;5.816;2024-02-21T10:51:43;12.30;68.42
66019;HTU21D;52787;51.084;5.816;2024-02-21T10:54:20;12.31;67.84
66019;HTU21D;52787;51.084;5.816;2024-02-21T10:56:50;12.32;67.80
66019;HTU21D;52787;51.084;5.816;2024-02-21T10:59:17;12.36;68.07
66019;HTU21D;52787;51.084;5.816;2024-02-21T11:01:43;12.40;68.24
66019;HTU21D;52787;51.084;5.816;2024-02-21T11:04:10;12.46;67.84
66019;HTU21D;52787;51.084;5.816;2024-02-21T11:06:39;12.48;67.75
66019;HTU21D;52787;51.084;5.816;2024-02-21T11:09:10;12.52;67.59
66019;HTU21D;52787;51.084;5.816;2024-02-21T11:11:42;12.52;67.48
66019;HTU21D;52787;51.084;5.816;2024-02-21T11:14:20;12.53;67.36
66019;HTU21D;52787;51.084;5.816;2024-02-21T11:16:47;12.51;67.43
66019;HTU21D;52787;51.084;5.816;2024-02-21T11:21:54;12.50;67.15
66019;HTU21D;52787;51.084;5.816;2024-02-21T11:24:31;12.52;67.65
66019;HTU21D;52787;51.084;5.816;2024-02-21T11:27:13;12.58;67.85
66019;HTU21D;52787;51.084;5.816;2024-02-21T11:29:46;12.64;67.78
66019;HTU21D;52787;51.084;5.816;2024-02-21T11:32:15;12.72;67.75
66019;HTU21D;52787;51.084;5.816;2024-02-21T11:34:59;12.78;67.15
66019;HTU21D;52787;51.084;5.816;2024-02-21T11:37:29;12.86;66.61
66019;HTU21D;52787;51.084;5.816;2024-02-21T11:39:56;12.94;66.02
66019;HTU21D;52787;51.084;5.816;2024-02-21T11:42:22;13.08;65.90
66019;HTU21D;52787;51.084;5.816;2024-02-21T11:44:50;13.21;65.47
66019;HTU21D;52787;51.084;5.816;2024-02-21T11:47:16;13.34;64.82
66019;HTU21D;52787;51.084;5.816;2024-02-21T11:49:47;13.41;64.88
66019;HTU21D;52787;51.084;5.816;2024-02-21T11:52:23;13.41;64.17
66019;HTU21D;52787;51.084;5.816;2024-02-21T11:54:51;13.35;64.08
66019;HTU21D;52787;51.084;5.816;2024-02-21T11:57:22;13.40;64.52
66019;HTU21D;52787;51.084;5.816;2024-02-21T11:59:48;13.48;64.21
66019;HTU21D;52787;51.084;5.816;2024-02-21T12:02:15;13.55;64.10
66019;HTU21D;52787;51.084;5.816;2024-02-21T12:04:42;13.63;64.17
66019;HTU21D;52787;51.084;5.816;2024-02-21T12:07:09;13.74;63.07
66019;HTU21D;52787;51.084;5.816;2024-02-21T12:09:35;13.74;62.61
66019;HTU21D;52787;51.084;5.816;2024-02-21T12:12:05;13.76;63.15
66019;HTU21D;52787;51.084;5.816;2024-02-21T12:14:33;13.92;61.71
66019;HTU21D;52787;51.084;5.816;2024-02-21T12:17:02;14.05;61.69
66019;HTU21D;52787;51.084;5.816;2024-02-21T12:19:33;14.12;61.50
66019;HTU21D;52787;51.084;5.816;2024-02-21T12:22:00;14.17;61.55
66019;HTU21D;52787;51.084;5.816;2024-02-21T12:24:28;14.30;61.34
66019;HTU21D;52787;51.084;5.816;2024-02-21T12:26:55;14.45;61.45
66019;HTU21D;52787;51.084;5.816;2024-02-21T12:29:22;14.67;60.39
66019;HTU21D;52787;51.084;5.816;2024-02-21T12:31:52;14.88;60.29
66019;HTU21D;52787;51.084;5.816;2024-02-21T12:34:20;15.06;58.94
66019;HTU21D;52787;51.084;5.816;2024-02-21T12:36:47;15.24;58.99
66019;HTU21D;52787;51.084;5.816;2024-02-21T12:39:13;15.41;58.31
66019;HTU21D;52787;51.084;5.816;2024-02-21T12:41:40;15.54;57.70
66019;HTU21D;52787;51.084;5.816;2024-02-21T12:44:08;15.57;57.54
66019;HTU21D;52787;51.084;5.816;2024-02-21T12:46:35;15.41;56.81
66019;HTU21D;52787;51.084;5.816;2024-02-21T12:49:04;15.10;57.74
66019;HTU21D;52787;51.084;5.816;2024-02-21T12:51:33;14.74;58.32
66019;HTU21D;52787;51.084;5.816;2024-02-21T12:54:00;14.39;59.04
66019;HTU21D;52787;51.084;5.816;2024-02-21T12:56:26;14.06;60.40
66019;HTU21D;52787;51.084;5.816;2024-02-21T12:58:53;13.85;61.44
66019;HTU21D;52787;51.084;5.816;2024-02-21T13:01:19;13.70;62.13
66019;HTU21D;52787;51.084;5.816;2024-02-21T13:03:44;13.59;62.76
66019;HTU21D;52787;51.084;5.816;2024-02-21T13:06:12;13.46;62.67
66019;HTU21D;52787;51.084;5.816;2024-02-21T13:08:38;13.36;63.18
66019;HTU21D;52787;51.084;5.816;2024-02-21T13:11:05;13.30;63.28
66019;HTU21D;52787;51.084;5.816;2024-02-21T13:13:31;13.23;63.70
66019;HTU21D;52787;51.084;5.816;2024-02-21T13:15:58;13.17;63.76
66019;HTU21D;52787;51.084;5.816;2024-02-21T13:18:24;13.10;64.03
66019;HTU21D;52787;51.084;5.816;2024-02-21T13:20:50;13.06;64.40
66019;HTU21D;52787;51.084;5.816;2024-02-21T13:23:16;13.07;63.87
66019;HTU21D;52787;51.084;5.816;2024-02-21T13:25:41;12.97;64.05
66019;HTU21D;52787;51.084;5.816;2024-02-21T13:28:07;12.92;64.41
66019;HTU21D;52787;51.084;5.816;2024-02-21T13:30:35;12.92;64.16
66019;HTU21D;52787;51.084;5.816;2024-02-21T13:33:01;12.88;63.72
66019;HTU21D;52787;51.084;5.816;2024-02-21T13:35:28;12.82;64.41
66019;HTU21D;52787;51.084;5.816;2024-02-21T13:37:54;12.84;64.44
66019;HTU21D;52787;51.084;5.816;2024-02-21T13:40:20;12.82;64.72
66019;HTU21D;52787;51.084;5.816;2024-02-21T13:42:46;12.88;65.16
66019;HTU21D;52787;51.084;5.816;2024-02-21T13:45:11;12.95;65.27
66019;HTU21D;52787;51.084;5.816;2024-02-21T13:47:37;13.05;64.65
66019;HTU21D;52787;51.084;5.816;2024-02-21T13:50:05;13.08;63.69
66019;HTU21D;52787;51.084;5.816;2024-02-21T13:52:40;13.07;63.85
66019;HTU21D;52787;51.084;5.816;2024-02-21T13:55:07;13.15;64.56
66019;HTU21D;52787;51.084;5.816;2024-02-21T13:57:36;13.23;64.77
66019;HTU21D;52787;51.084;5.816;2024-02-21T14:00:03;13.35;64.82
66019;HTU21D;52787;51.084;5.816;2024-02-21T14:02:30;13.41;64.14
66019;HTU21D;52787;51.084;5.816;2024-02-21T14:04:57;13.38;63.74
66019;HTU21D;52787;51.084;5.816;2024-02-21T14:07:22;13.39;63.98
66019;HTU21D;52787;51.084;5.816;2024-02-21T14:09:49;13.40;63.88
66019;HTU21D;52787;51.084;5.816;2024-02-21T14:12:15;13.36;63.47
66019;HTU21D;52787;51.084;5.816;2024-02-21T14:14:43;13.33;63.40
66019;HTU21D;52787;51.084;5.816;2024-02-21T14:17:10;13.27;63.05
66019;HTU21D;52787;51.084;5.816;2024-02-21T14:19:36;13.20;63.58
66019;HTU21D;52787;51.084;5.816;2024-02-21T14:22:02;13.11;63.47
66019;HTU21D;52787;51.084;5.816;2024-02-21T14:24:28;13.05;63.25
66019;HTU21D;52787;51.084;5.816;2024-02-21T14:26:54;13.02;62.98
66019;HTU21D;52787;51.084;5.816;2024-02-21T14:29:20;12.99;63.34
66019;HTU21D;52787;51.084;5.816;2024-02-21T14:31:47;12.94;63.18
66019;HTU21D;52787;51.084;5.816;2024-02-21T14:34:13;12.95;63.32
66019;HTU21D;52787;51.084;5.816;2024-02-21T14:36:38;12.96;63.63
66019;HTU21D;52787;51.084;5.816;2024-02-21T14:39:06;12.97;63.82
66019;HTU21D;52787;51.084;5.816;2024-02-21T14:41:32;13.03;64.27
66019;HTU21D;52787;51.084;5.816;2024-02-21T14:43:57;13.07;64.53
66019;HTU21D;52787;51.084;5.816;2024-02-21T14:46:25;13.08;64.56
66019;HTU21D;52787;51.084;5.816;2024-02-21T14:48:54;13.05;64.36
66019;HTU21D;52787;51.084;5.816;2024-02-21T14:51:20;12.97;63.84
66019;HTU21D;52787;51.084;5.816;2024-02-21T14:53:46;12.91;63.96
66019;HTU21D;52787;51.084;5.816;2024-02-21T14:56:13;12.87;63.63
66019;HTU21D;52787;51.084;5.816;2024-02-21T14:58:41;12.79;63.69
66019;HTU21D;52787;51.084;5.816;2024-02-21T15:01:10;12.76;63.83
66019;HTU21D;52787;51.084;5.816;2024-02-21T15:03:35;12.71;64.10
66019;HTU21D;52787;51.084;5.816;2024-02-21T15:06:02;12.67;64.76
66019;HTU21D;52787;51.084;5.816;2024-02-21T15:08:28;12.66;65.14
66019;HTU21D;52787;51.084;5.816;2024-02-21T15:10:54;12.63;65.46
66019;HTU21D;52787;51.084;5.816;2024-02-21T15:13:20;12.59;65.34
66019;HTU21D;52787;51.084;5.816;2024-02-21T15:15:48;12.59;66.14
66019;HTU21D;52787;51.084;5.816;2024-02-21T15:18:14;12.57;66.40
66019;HTU21D;52787;51.084;5.816;2024-02-21T15:20:40;12.52;66.75